This is the latest recevied weather packets stored in our database for station/object EA4IAJ-12. If no packets are shown the sender has not sent any weather packets the latest 10 day(s).
| Time | Temp. | Humidity | Pressure | Rain* | Wind** | Luminosity | Snow |
|---|---|---|---|---|---|---|---|
| 1777761919 | 14.44° C | 100% | 1008.8 hPa | - | - | - | - |
| 1777761019 | 14.44° C | 100% | 1009 hPa | - | - | - | - |
| 1777760118 | 14.44° C | 100% | 1008.2 hPa | - | - | - | - |
| 1777759218 | 15° C | 100% | 1008.8 hPa | - | - | - | - |
| 1777758330 | 15° C | 100% | 1011 hPa | - | - | - | - |
| 1777756529 | 15° C | 100% | 1008.7 hPa | - | - | - | - |
| 1777755628 | 13.89° C | 100% | 1005.8 hPa | - | - | - | - |
| 1777754727 | 13.89° C | 100% | 1003.6 hPa | - | - | - | - |
| 1777753827 | 13.89° C | 100% | 1004.9 hPa | - | - | - | - |
| 1777752926 | 15° C | 100% | 1008.1 hPa | - | - | - | - |
| 1777752026 | 15° C | 100% | 1007.4 hPa | - | - | - | - |
| 1777751125 | 15° C | 100% | 1009.4 hPa | - | - | - | - |
| 1777750225 | 15.56° C | 100% | 1010.7 hPa | - | - | - | - |
| 1777749324 | 16.11° C | 100% | 1013 hPa | - | - | - | - |
| 1777748424 | 17.22° C | 100% | 1016.6 hPa | - | - | - | - |
| 1777747523 | 17.78° C | 100% | 1019.7 hPa | - | - | - | - |
| 1777746623 | 20° C | 100% | 1028 hPa | - | - | - | - |
| 1777745722 | 22.22° C | 100% | 1037.8 hPa | - | - | - | - |
| 1777744822 | 23.89° C | 100% | 1046.2 hPa | - | - | - | - |
| 1777743921 | 22.78° C | 100% | 1040.3 hPa | - | - | - | - |
| 1777742120 | 17.22° C | 100% | 1017.9 hPa | - | - | - | - |
| 1777741219 | 17.22° C | 100% | 1017.2 hPa | - | - | - | - |
| 1777740319 | 17.22° C | 100% | 1017.2 hPa | - | - | - | - |
| 1777739418 | 17.22° C | 100% | 1017.8 hPa | - | - | - | - |
| 1777738518 | 17.78° C | 100% | 1021 hPa | - | - | - | - |
* Rain since midnight (hover to see other rain measurements)
** Current wind speed in m/s (hover to see current wind gust speed)